createdAt,value
2017-07-27T00:00:04.750Z,0
2017-07-27T00:01:04.158Z,0
2017-07-27T00:02:04.807Z,0
2017-07-27T00:03:03.900Z,0
2017-07-27T00:04:04.557Z,0
2017-07-27T00:05:04.902Z,0
2017-07-27T00:06:04.631Z,0
2017-07-27T00:07:04.379Z,0
2017-07-27T00:08:04.969Z,0
2017-07-27T00:09:04.385Z,0
2017-07-27T00:10:05.038Z,0
2017-07-27T00:11:04.134Z,0
2017-07-27T00:12:04.471Z,0
2017-07-27T00:13:05.112Z,0
2017-07-27T00:14:04.853Z,0
2017-07-27T00:15:04.867Z,0
2017-07-27T00:16:05.211Z,0
2017-07-27T00:17:04.604Z,0
2017-07-27T00:18:04.884Z,0
2017-07-27T00:19:04.669Z,0
2017-07-27T00:20:05.000Z,0
2017-07-27T00:21:05.350Z,0
2017-07-27T00:22:05.062Z,0
2017-07-27T00:23:05.350Z,0
2017-07-27T00:24:05.112Z,0
2017-07-27T00:25:04.834Z,0
2017-07-27T00:26:05.487Z,0
2017-07-27T00:27:05.199Z,0
2017-07-27T00:28:05.532Z,0
2017-07-27T00:29:05.325Z,0
2017-07-27T00:30:04.973Z,0
2017-07-27T00:31:05.326Z,0
2017-07-27T00:32:05.667Z,0
2017-07-27T00:33:05.320Z,0
2017-07-27T00:34:05.406Z,0
2017-07-27T00:35:05.434Z,0
2017-07-27T00:36:05.163Z,0
2017-07-27T00:37:05.478Z,0
2017-07-27T00:38:05.497Z,0
2017-07-27T00:39:05.864Z,0
2017-07-27T00:40:05.573Z,0
2017-07-27T00:41:05.294Z,0
2017-07-27T00:42:05.935Z,0
2017-07-27T00:43:05.907Z,0
2017-07-27T00:44:05.701Z,0
2017-07-27T00:45:06.032Z,0
2017-07-27T00:46:05.746Z,0
2017-07-27T00:47:06.075Z,0
2017-07-27T00:48:06.052Z,0
2017-07-27T00:49:05.509Z,0
2017-07-27T00:50:05.861Z,0
2017-07-27T00:51:05.254Z,0
2017-07-27T00:52:05.907Z,0
2017-07-27T00:53:05.925Z,0
2017-07-27T00:54:05.654Z,0
2017-07-27T00:55:05.998Z,0
2017-07-27T00:56:05.403Z,0
2017-07-27T00:57:06.047Z,0
2017-07-27T00:58:06.381Z,0
2017-07-27T00:59:06.104Z,0
2017-07-27T01:00:05.826Z,0
2017-07-27T01:01:06.473Z,0
2017-07-27T01:02:05.887Z,0
2017-07-27T01:03:06.792Z,0
2017-07-27T01:04:05.938Z,0
2017-07-27T01:05:05.969Z,0
2017-07-27T01:06:06.615Z,0
2017-07-27T01:07:06.035Z,0
2017-07-27T01:08:06.616Z,0
2017-07-27T01:09:06.385Z,0
2017-07-27T01:10:06.726Z,0
2017-07-27T01:11:06.438Z,0
2017-07-27T01:12:06.499Z,0
2017-07-27T01:13:07.112Z,0
2017-07-27T01:14:05.909Z,0
2017-07-27T01:15:06.561Z,0
2017-07-27T01:16:06.889Z,0
2017-07-27T01:17:06.631Z,0
2017-07-27T01:18:06.895Z,0
2017-07-27T01:19:06.985Z,0
2017-07-27T01:20:06.386Z,0
2017-07-27T01:21:06.409Z,0
2017-07-27T01:22:06.756Z,0
2017-07-27T01:23:06.771Z,0
2017-07-27T01:24:06.500Z,0
2017-07-27T01:25:06.528Z,0
2017-07-27T01:26:07.174Z,0
2017-07-27T01:27:06.580Z,0
2017-07-27T01:28:07.534Z,0
2017-07-27T01:29:06.957Z,0
2017-07-27T01:30:07.293Z,0
2017-07-27T01:31:06.383Z,0
2017-07-27T01:32:07.044Z,0
2017-07-27T01:33:07.631Z,0
2017-07-27T01:34:06.465Z,0
2017-07-27T01:35:07.122Z,0
2017-07-27T01:36:06.825Z,0
2017-07-27T01:37:06.867Z,0
2017-07-27T01:38:06.899Z,0
2017-07-27T01:39:07.230Z,0
2017-07-27T01:40:06.954Z,0
2017-07-27T01:41:07.602Z,0
2017-07-27T01:42:07.315Z,0
2017-07-27T01:43:07.364Z,0
2017-07-27T01:44:07.379Z,0
2017-07-27T01:45:07.090Z,0
2017-07-27T01:46:07.423Z,0
2017-07-27T01:47:07.147Z,0
2017-07-27T01:48:07.479Z,0
2017-07-27T01:49:07.525Z,0
2017-07-27T01:50:07.224Z,0
2017-07-27T01:51:07.258Z,0
2017-07-27T01:52:07.908Z,0
2017-07-27T01:53:07.933Z,0
2017-07-27T01:54:07.655Z,0
2017-07-27T01:55:07.365Z,0
2017-07-27T01:56:07.702Z,0
2017-07-27T01:57:08.060Z,0
2017-07-27T01:58:07.452Z,0
2017-07-27T01:59:07.793Z,0
2017-07-27T02:00:08.126Z,0
2017-07-27T02:01:07.215Z,0
2017-07-27T02:02:07.563Z,0
2017-07-27T02:03:07.905Z,0
2017-07-27T02:04:08.179Z,0
2017-07-27T02:05:08.272Z,0
2017-07-27T02:06:07.991Z,0
2017-07-27T02:07:07.715Z,0
2017-07-27T02:08:07.740Z,0
2017-07-27T02:09:08.638Z,0
2017-07-27T02:10:07.794Z,0
2017-07-27T02:11:08.127Z,0
2017-07-27T02:12:07.844Z,0
2017-07-27T02:13:08.192Z,0
2017-07-27T02:14:08.164Z,0
2017-07-27T02:15:08.238Z,0
2017-07-27T02:16:07.639Z,0
2017-07-27T02:17:07.990Z,0
2017-07-27T02:18:08.337Z,0
2017-07-27T02:19:07.984Z,0
2017-07-27T02:20:08.378Z,0
2017-07-27T02:21:08.098Z,0
2017-07-27T02:22:08.122Z,0
2017-07-27T02:23:08.788Z,0
2017-07-27T02:24:08.793Z,0
2017-07-27T02:25:08.209Z,0
2017-07-27T02:26:07.927Z,0
2017-07-27T02:27:08.580Z,0
2017-07-27T02:28:08.600Z,0
2017-07-27T02:29:08.581Z,0
2017-07-27T02:30:08.353Z,0
2017-07-27T02:31:08.693Z,0
2017-07-27T02:32:08.432Z,0
2017-07-27T02:33:08.439Z,0
2017-07-27T02:34:08.709Z,0
2017-07-27T02:35:08.822Z,0
2017-07-27T02:36:08.839Z,0
2017-07-27T02:37:08.860Z,0
2017-07-27T02:38:08.892Z,0
2017-07-27T02:39:09.525Z,0
2017-07-27T02:40:08.334Z,0
2017-07-27T02:41:08.351Z,0
2017-07-27T02:42:08.688Z,0
2017-07-27T02:43:09.349Z,0
2017-07-27T02:44:08.995Z,0
2017-07-27T02:45:09.158Z,0
2017-07-27T02:46:09.118Z,0
2017-07-27T02:47:09.455Z,0
2017-07-27T02:48:09.185Z,0
2017-07-27T02:49:09.129Z,0
2017-07-27T02:50:09.233Z,0
2017-07-27T02:51:09.252Z,0
2017-07-27T02:52:08.964Z,0
2017-07-27T02:53:09.021Z,0
2017-07-27T02:54:09.268Z,0
2017-07-27T02:55:09.066Z,0
2017-07-27T02:56:09.390Z,0
2017-07-27T02:57:09.740Z,0
2017-07-27T02:58:09.448Z,0
2017-07-27T02:59:09.721Z,0
2017-07-27T03:00:09.240Z,0
2017-07-27T03:01:09.851Z,0
2017-07-27T03:02:09.869Z,0
2017-07-27T03:03:09.904Z,0
2017-07-27T03:04:09.912Z,0
2017-07-27T03:05:09.653Z,0
2017-07-27T03:06:09.671Z,0
2017-07-27T03:07:09.696Z,0
2017-07-27T03:08:09.728Z,0
2017-07-27T03:09:09.383Z,0
2017-07-27T03:10:09.466Z,0
2017-07-27T03:11:09.507Z,0
2017-07-27T03:12:09.852Z,0
2017-07-27T03:13:09.551Z,0
2017-07-27T03:14:10.502Z,0
2017-07-27T03:15:09.618Z,0
2017-07-27T03:16:09.326Z,0
2017-07-27T03:17:09.362Z,0
2017-07-27T03:18:09.703Z,0
2017-07-27T03:19:10.029Z,0
2017-07-27T03:20:10.066Z,0
2017-07-27T03:21:09.777Z,0
2017-07-27T03:22:10.123Z,0
2017-07-27T03:23:10.156Z,0
2017-07-27T03:24:10.484Z,0
2017-07-27T03:25:10.201Z,0
2017-07-27T03:26:10.540Z,0
2017-07-27T03:27:10.262Z,0
2017-07-27T03:28:10.597Z,0
2017-07-27T03:29:10.304Z,0
2017-07-27T03:30:10.343Z,0
2017-07-27T03:31:10.691Z,0
2017-07-27T03:32:10.087Z,0
2017-07-27T03:33:10.736Z,0
2017-07-27T03:34:10.777Z,0
2017-07-27T03:35:10.470Z,0
2017-07-27T03:36:10.201Z,0
2017-07-27T03:37:10.543Z,0
2017-07-27T03:38:10.251Z,0
2017-07-27T03:39:10.593Z,0
2017-07-27T03:40:10.882Z,0
2017-07-27T03:41:10.975Z,0
2017-07-27T03:42:10.365Z,4
2017-07-27T03:43:10.392Z,4
2017-07-27T03:44:10.729Z,4
2017-07-27T03:45:10.709Z,4
2017-07-27T03:46:10.787Z,4
2017-07-27T03:47:10.818Z,4
2017-07-27T03:48:10.538Z,4
2017-07-27T03:49:10.868Z,4
2017-07-27T03:50:11.153Z,4
2017-07-27T03:51:10.931Z,8
2017-07-27T03:52:10.649Z,8
2017-07-27T03:53:10.989Z,12
2017-07-27T03:54:10.390Z,8
2017-07-27T03:55:11.654Z,12
2017-07-27T03:56:11.066Z,12
2017-07-27T03:57:10.783Z,12
2017-07-27T03:58:10.812Z,16
2017-07-27T03:59:10.841Z,12
2017-07-27T04:00:11.485Z,12
2017-07-27T04:01:10.899Z,16
2017-07-27T04:02:11.543Z,24
2017-07-27T04:03:11.576Z,28
2017-07-27T04:04:11.618Z,24
2017-07-27T04:05:11.262Z,36
2017-07-27T04:06:11.346Z,40
2017-07-27T04:07:11.379Z,40
2017-07-27T04:08:11.719Z,44
2017-07-27T04:09:11.428Z,48
2017-07-27T04:10:11.407Z,60
2017-07-27T04:11:10.862Z,72
2017-07-27T04:12:11.519Z,84
2017-07-27T04:13:11.855Z,96
2017-07-27T04:14:10.953Z,100
2017-07-27T04:15:11.902Z,116
2017-07-27T04:16:11.343Z,128
2017-07-27T04:17:11.351Z,188
2017-07-27T04:18:11.679Z,196
2017-07-27T04:19:11.089Z,172
2017-07-27T04:20:11.682Z,180
2017-07-27T04:21:11.458Z,176
2017-07-27T04:22:11.815Z,204
2017-07-27T04:23:11.516Z,188
2017-07-27T04:24:11.857Z,192
2017-07-27T04:25:12.462Z,180
2017-07-27T04:26:11.599Z,172
2017-07-27T04:27:11.622Z,152
2017-07-27T04:28:11.961Z,156
2017-07-27T04:29:12.302Z,168
2017-07-27T04:30:12.276Z,212
2017-07-27T04:31:12.357Z,244
2017-07-27T04:32:11.776Z,236
2017-07-27T04:33:12.412Z,232
2017-07-27T04:34:12.137Z,252
2017-07-27T04:35:12.146Z,236
2017-07-27T04:36:11.884Z,320
2017-07-27T04:37:11.587Z,320
2017-07-27T04:38:11.940Z,332
2017-07-27T04:39:12.278Z,320
2017-07-27T04:40:12.298Z,312
2017-07-27T04:41:12.643Z,344
2017-07-27T04:42:12.351Z,336
2017-07-27T04:43:12.073Z,292
2017-07-27T04:44:11.792Z,248
2017-07-27T04:45:12.380Z,220
2017-07-27T04:46:12.167Z,228
2017-07-27T04:47:12.502Z,236
2017-07-27T04:48:12.524Z,276
2017-07-27T04:49:12.877Z,280
2017-07-27T04:50:13.149Z,356
2017-07-27T04:51:12.615Z,468
2017-07-27T04:52:12.331Z,496
2017-07-27T04:53:12.661Z,508
2017-07-27T04:54:12.705Z,492
2017-07-27T04:55:13.034Z,424
2017-07-27T04:56:13.072Z,360
2017-07-27T04:57:12.156Z,344
2017-07-27T04:58:12.821Z,356
2017-07-27T04:59:12.847Z,368
2017-07-27T05:00:12.863Z,384
2017-07-27T05:01:13.204Z,440
2017-07-27T05:02:12.288Z,468
2017-07-27T05:03:13.260Z,404
2017-07-27T05:04:12.982Z,444
2017-07-27T05:05:12.999Z,420
2017-07-27T05:06:12.662Z,388
2017-07-27T05:07:12.755Z,300
2017-07-27T05:08:13.081Z,308
2017-07-27T05:09:12.842Z,420
2017-07-27T05:10:13.144Z,352
2017-07-27T05:11:13.474Z,280
2017-07-27T05:12:13.193Z,388
2017-07-27T05:13:13.529Z,472
2017-07-27T05:14:12.946Z,488
2017-07-27T05:15:13.291Z,732
2017-07-27T05:16:13.568Z,876
2017-07-27T05:17:12.716Z,924
2017-07-27T05:18:13.044Z,880
2017-07-27T05:19:13.404Z,788
2017-07-27T05:20:12.795Z,844
2017-07-27T05:21:13.727Z,608
2017-07-27T05:22:12.852Z,528
2017-07-27T05:23:13.201Z,672
2017-07-27T05:24:13.533Z,612
2017-07-27T05:25:13.270Z,576
2017-07-27T05:26:13.531Z,468
2017-07-27T05:27:13.299Z,436
2017-07-27T05:28:13.333Z,344
2017-07-27T05:29:13.677Z,496
2017-07-27T05:30:14.014Z,492
2017-07-27T05:31:13.987Z,544
2017-07-27T05:32:13.756Z,608
2017-07-27T05:33:13.798Z,584
2017-07-27T05:34:13.825Z,560
2017-07-27T05:35:13.847Z,556
2017-07-27T05:36:13.503Z,592
2017-07-27T05:37:13.596Z,496
2017-07-27T05:38:13.938Z,560
2017-07-27T05:39:13.979Z,428
2017-07-27T05:40:13.667Z,392
2017-07-27T05:41:13.999Z,368
2017-07-27T05:42:14.369Z,448
2017-07-27T05:43:14.079Z,580
2017-07-27T05:44:13.785Z,668
2017-07-27T05:45:13.810Z,696
2017-07-27T05:46:14.088Z,688
2017-07-27T05:47:14.178Z,756
2017-07-27T05:48:14.205Z,752
2017-07-27T05:49:14.231Z,996
2017-07-27T05:50:14.259Z,1136
2017-07-27T05:51:14.846Z,1324
2017-07-27T05:52:14.316Z,1492
2017-07-27T05:53:13.727Z,1428
2017-07-27T05:54:14.379Z,1500
2017-07-27T05:55:14.717Z,1520
2017-07-27T05:56:15.052Z,1492
2017-07-27T05:57:14.768Z,1600
2017-07-27T05:58:13.865Z,1572
2017-07-27T05:59:14.513Z,1576
2017-07-27T06:00:14.231Z,1584
2017-07-27T06:01:14.823Z,1592
2017-07-27T06:02:14.907Z,1544
2017-07-27T06:03:14.321Z,1428
2017-07-27T06:04:14.342Z,1360
2017-07-27T06:05:14.681Z,1304
2017-07-27T06:06:14.972Z,1228
2017-07-27T06:07:15.055Z,1108
2017-07-27T06:08:14.465Z,1140
2017-07-27T06:09:15.105Z,1208
2017-07-27T06:10:14.825Z,1220
2017-07-27T06:11:15.471Z,1168
2017-07-27T06:12:14.256Z,1064
2017-07-27T06:13:14.601Z,1008
2017-07-27T06:14:15.252Z,1072
2017-07-27T06:15:14.966Z,1140
2017-07-27T06:16:15.295Z,1148
2017-07-27T06:17:15.024Z,1240
2017-07-27T06:18:15.056Z,1548
2017-07-27T06:19:14.764Z,1556
2017-07-27T06:20:15.110Z,1568
2017-07-27T06:21:15.714Z,1232
2017-07-27T06:22:14.856Z,1200
2017-07-27T06:23:14.876Z,1180
2017-07-27T06:24:15.538Z,1412
2017-07-27T06:25:14.934Z,1676
2017-07-27T06:26:15.531Z,1716
2017-07-27T06:27:14.676Z,1656
2017-07-27T06:28:15.034Z,1652
2017-07-27T06:29:15.046Z,1616
2017-07-27T06:30:15.386Z,1644
2017-07-27T06:31:15.675Z,1624
2017-07-27T06:32:15.439Z,1448
2017-07-27T06:33:15.480Z,1240
2017-07-27T06:34:15.813Z,1388
2017-07-27T06:35:15.837Z,1308
2017-07-27T06:36:15.522Z,1296
2017-07-27T06:37:15.579Z,1408
2017-07-27T06:38:15.616Z,1356
2017-07-27T06:39:15.948Z,1276
2017-07-27T06:40:15.667Z,1204
2017-07-27T06:41:15.627Z,1208
2017-07-27T06:42:15.432Z,1296
2017-07-27T06:43:15.129Z,1416
2017-07-27T06:44:15.782Z,1508
2017-07-27T06:45:16.122Z,1600
2017-07-27T06:46:15.776Z,1648
2017-07-27T06:47:16.181Z,1540
2017-07-27T06:48:15.588Z,1436
2017-07-27T06:49:16.230Z,1596
2017-07-27T06:50:15.955Z,1644
2017-07-27T06:51:15.610Z,1844
2017-07-27T06:52:16.320Z,1504
2017-07-27T06:53:16.030Z,1564
2017-07-27T06:54:15.438Z,1424
2017-07-27T06:55:15.774Z,1432
2017-07-27T06:56:16.681Z,1204
2017-07-27T06:57:15.840Z,1132
2017-07-27T06:58:16.177Z,924
2017-07-27T06:59:16.206Z,1160
2017-07-27T07:00:16.242Z,1216
2017-07-27T07:01:15.947Z,1160
2017-07-27T07:02:16.600Z,1048
2017-07-27T07:03:16.624Z,1756
2017-07-27T07:04:16.348Z,2268
2017-07-27T07:05:16.678Z,2304
2017-07-27T07:06:16.088Z,2464
2017-07-27T07:07:16.767Z,2784
2017-07-27T07:08:16.454Z,3008
2017-07-27T07:09:16.499Z,3200
2017-07-27T07:10:16.520Z,3356
2017-07-27T07:11:16.239Z,3476
2017-07-27T07:12:16.877Z,3500
2017-07-27T07:13:16.919Z,3528
2017-07-27T07:14:16.634Z,3332
2017-07-27T07:15:16.359Z,3252
2017-07-27T07:16:16.683Z,3136
2017-07-27T07:17:16.738Z,3072
2017-07-27T07:18:16.736Z,3000
2017-07-27T07:19:16.775Z,3372
2017-07-27T07:20:16.483Z,3236
2017-07-27T07:21:16.204Z,2968
2017-07-27T07:22:17.413Z,2896
2017-07-27T07:23:16.881Z,2336
2017-07-27T07:24:16.909Z,2396
2017-07-27T07:25:16.938Z,2420
2017-07-27T07:26:16.655Z,2464
2017-07-27T07:27:16.671Z,2236
2017-07-27T07:28:17.020Z,2344
2017-07-27T07:29:17.049Z,2504
2017-07-27T07:30:16.784Z,2692
2017-07-27T07:31:17.107Z,2612
2017-07-27T07:32:17.700Z,2036
2017-07-27T07:33:16.857Z,2748
2017-07-27T07:34:17.498Z,2444
2017-07-27T07:35:17.223Z,2804
2017-07-27T07:36:16.939Z,2840
2017-07-27T07:37:17.264Z,3040
2017-07-27T07:38:17.309Z,2640
2017-07-27T07:39:17.647Z,2616
2017-07-27T07:40:17.046Z,2228
2017-07-27T07:41:17.714Z,2564
2017-07-27T07:42:17.664Z,2452
2017-07-27T07:43:17.164Z,2428
2017-07-27T07:44:17.779Z,2356
2017-07-27T07:45:17.833Z,1952
2017-07-27T07:46:17.214Z,1672
2017-07-27T07:47:17.809Z,1716
2017-07-27T07:48:17.280Z,1368
2017-07-27T07:49:17.612Z,1296
2017-07-27T07:50:17.330Z,1120
2017-07-27T07:51:17.675Z,1172
2017-07-27T07:52:18.006Z,1820
2017-07-27T07:53:17.728Z,2128
2017-07-27T07:54:17.457Z,1404
2017-07-27T07:55:17.794Z,960
2017-07-27T07:56:17.815Z,884
2017-07-27T07:57:18.148Z,1384
2017-07-27T07:58:18.177Z,2304
2017-07-27T07:59:18.213Z,1764
2017-07-27T08:00:17.930Z,2012
2017-07-27T08:01:17.964Z,1900
2017-07-27T08:02:18.607Z,2312
2017-07-27T08:03:18.025Z,2176
2017-07-27T08:04:18.046Z,1980
2017-07-27T08:05:17.758Z,2884
2017-07-27T08:06:18.102Z,2588
2017-07-27T08:07:18.437Z,2300
2017-07-27T08:08:18.457Z,2448
2017-07-27T08:09:18.186Z,1980
2017-07-27T08:10:18.210Z,1712
2017-07-27T08:11:18.243Z,2152
2017-07-27T08:12:18.844Z,1876
2017-07-27T08:13:18.292Z,1724
2017-07-27T08:14:17.709Z,1784
2017-07-27T08:15:18.698Z,2372
2017-07-27T08:16:17.776Z,3188
2017-07-27T08:17:18.668Z,2336
2017-07-27T08:18:18.766Z,2300
2017-07-27T08:19:18.158Z,2996
2017-07-27T08:20:18.191Z,2680
2017-07-27T08:21:18.836Z,2764
2017-07-27T08:22:19.121Z,2032
2017-07-27T08:23:18.574Z,2580
2017-07-27T08:24:18.918Z,3064
2017-07-27T08:25:18.951Z,3368
2017-07-27T08:26:18.982Z,3064
2017-07-27T08:27:18.993Z,2652
2017-07-27T08:28:18.413Z,2364
2017-07-27T08:29:18.763Z,2588
2017-07-27T08:30:18.783Z,2856
2017-07-27T08:31:18.807Z,3288
2017-07-27T08:32:19.140Z,3996
2017-07-27T08:33:19.188Z,4032
2017-07-27T08:34:18.892Z,4068
2017-07-27T08:35:19.242Z,4068
2017-07-27T08:36:19.291Z,3892
2017-07-27T08:37:18.983Z,3700
2017-07-27T08:38:18.701Z,3260
2017-07-27T08:39:19.047Z,3748
2017-07-27T08:40:18.442Z,3900
2017-07-27T08:41:18.783Z,4520
2017-07-27T08:42:19.116Z,4652
2017-07-27T08:43:19.145Z,4612
2017-07-27T08:44:19.193Z,4212
2017-07-27T08:45:19.558Z,3808
2017-07-27T08:46:19.551Z,3892
2017-07-27T08:47:19.577Z,3768
2017-07-27T08:48:19.298Z,3256
2017-07-27T08:49:19.329Z,3416
2017-07-27T08:50:18.731Z,2352
2017-07-27T08:51:19.070Z,2340
2017-07-27T08:52:19.404Z,2820
2017-07-27T08:53:19.129Z,3136
2017-07-27T08:54:19.787Z,3144
2017-07-27T08:55:19.507Z,3384
2017-07-27T08:56:18.902Z,3556
2017-07-27T08:57:19.548Z,2804
2017-07-27T08:58:19.885Z,2020
2017-07-27T08:59:19.618Z,1696
2017-07-27T09:00:19.646Z,1728
2017-07-27T09:01:19.993Z,2188
2017-07-27T09:02:19.696Z,2580
2017-07-27T09:03:19.981Z,2516
2017-07-27T09:04:19.762Z,2296
2017-07-27T09:05:19.467Z,1608
2017-07-27T09:06:19.811Z,1400
2017-07-27T09:07:20.156Z,1408
2017-07-27T09:08:20.183Z,2072
2017-07-27T09:09:20.235Z,2124
2017-07-27T09:10:19.922Z,1700
2017-07-27T09:11:19.947Z,2144
2017-07-27T09:12:19.989Z,2176
2017-07-27T09:13:19.948Z,2040
2017-07-27T09:14:19.732Z,2412
2017-07-27T09:15:20.065Z,1760
2017-07-27T09:16:19.788Z,1536
2017-07-27T09:17:20.124Z,1516
2017-07-27T09:18:20.712Z,1156
2017-07-27T09:19:19.874Z,1148
2017-07-27T09:20:19.578Z,1188
2017-07-27T09:21:20.260Z,1280
2017-07-27T09:22:20.268Z,1336
2017-07-27T09:23:20.541Z,1140
2017-07-27T09:24:20.019Z,1240
2017-07-27T09:25:20.341Z,1132
2017-07-27T09:26:20.383Z,1200
2017-07-27T09:27:20.101Z,1556
2017-07-27T09:28:20.683Z,1784
2017-07-27T09:29:20.155Z,2068
2017-07-27T09:30:20.490Z,2084
2017-07-27T09:31:20.231Z,1856
2017-07-27T09:32:20.556Z,1852
2017-07-27T09:33:20.549Z,1240
2017-07-27T09:34:20.922Z,1368
2017-07-27T09:35:20.647Z,1740
2017-07-27T09:36:20.972Z,1896
2017-07-27T09:37:20.996Z,1828
2017-07-27T09:38:20.968Z,1452
2017-07-27T09:39:20.438Z,2320
2017-07-27T09:40:21.099Z,3392
2017-07-27T09:41:21.123Z,3048
2017-07-27T09:42:20.844Z,3508
2017-07-27T09:43:21.117Z,3872
2017-07-27T09:44:20.898Z,3908
2017-07-27T09:45:20.611Z,4288
2017-07-27T09:46:20.639Z,5588
2017-07-27T09:47:21.299Z,6436
2017-07-27T09:48:21.568Z,6924
2017-07-27T09:49:20.716Z,5952
2017-07-27T09:50:20.759Z,3240
2017-07-27T09:51:21.110Z,3824
2017-07-27T09:52:21.128Z,5464
2017-07-27T09:53:21.451Z,5108
2017-07-27T09:54:21.179Z,5868
2017-07-27T09:55:21.522Z,5948
2017-07-27T09:56:21.239Z,4940
2017-07-27T09:57:21.577Z,6044
2017-07-27T09:58:21.556Z,5132
2017-07-27T09:59:21.021Z,5680
2017-07-27T10:00:21.346Z,7872
2017-07-27T10:01:21.068Z,5400
2017-07-27T10:02:21.722Z,5524
2017-07-27T10:03:21.745Z,7456
2017-07-27T10:04:21.769Z,7928
2017-07-27T10:05:21.178Z,8152
2017-07-27T10:06:21.220Z,6028
2017-07-27T10:07:21.865Z,2936
2017-07-27T10:08:21.519Z,2104
2017-07-27T10:09:21.925Z,1484
2017-07-27T10:10:21.315Z,2460
2017-07-27T10:11:21.039Z,2828
2017-07-27T10:12:21.689Z,2744
2017-07-27T10:13:22.280Z,2808
2017-07-27T10:14:21.440Z,3060
2017-07-27T10:15:22.094Z,4356
2017-07-27T10:16:21.803Z,5668
2017-07-27T10:17:21.525Z,6320
2017-07-27T10:18:21.857Z,6500
2017-07-27T10:19:21.581Z,6944
2017-07-27T10:20:21.610Z,6448
2017-07-27T10:21:22.263Z,4784
2017-07-27T10:22:21.990Z,5324
2017-07-27T10:23:21.389Z,4992
2017-07-27T10:24:22.603Z,3752
2017-07-27T10:25:21.446Z,3368
2017-07-27T10:26:21.790Z,2852
2017-07-27T10:27:22.123Z,2068
2017-07-27T10:28:22.174Z,2512
2017-07-27T10:29:22.130Z,2980
2017-07-27T10:30:22.533Z,4120
2017-07-27T10:31:21.995Z,4336
2017-07-27T10:32:22.268Z,4312
2017-07-27T10:33:22.613Z,5896
2017-07-27T10:34:22.639Z,6532
2017-07-27T10:35:22.367Z,5988
2017-07-27T10:36:22.393Z,5440
2017-07-27T10:37:22.759Z,5828
2017-07-27T10:38:22.447Z,6580
2017-07-27T10:39:22.730Z,7028
2017-07-27T10:40:22.506Z,7056
2017-07-27T10:41:22.537Z,7144
2017-07-27T10:42:22.259Z,5472
2017-07-27T10:43:22.280Z,5284
2017-07-27T10:44:22.922Z,7488
2017-07-27T10:45:22.650Z,8324
2017-07-27T10:46:22.988Z,8360
2017-07-27T10:47:22.422Z,7880
2017-07-27T10:48:23.049Z,7488
2017-07-27T10:49:22.709Z,7360
2017-07-27T10:50:22.790Z,5328
2017-07-27T10:51:22.512Z,4472
2017-07-27T10:52:22.848Z,3972
2017-07-27T10:53:22.585Z,5636
2017-07-27T10:54:23.173Z,6988
2017-07-27T10:55:22.624Z,5248
2017-07-27T10:56:22.987Z,2860
2017-07-27T10:57:22.679Z,2852
2017-07-27T10:58:23.016Z,3056
2017-07-27T10:59:22.985Z,3648
2017-07-27T11:00:23.387Z,2708
2017-07-27T11:01:22.795Z,2688
2017-07-27T11:02:23.453Z,2804
2017-07-27T11:03:23.170Z,3340
2017-07-27T11:04:22.818Z,3876
2017-07-27T11:05:23.223Z,5088
2017-07-27T11:06:23.255Z,6444
2017-07-27T11:07:23.585Z,5508
2017-07-27T11:08:23.313Z,5412
2017-07-27T11:09:23.586Z,7216
2017-07-27T11:10:23.055Z,7360
2017-07-27T11:11:23.088Z,5932
2017-07-27T11:12:23.742Z,6444
2017-07-27T11:13:23.454Z,6920
2017-07-27T11:14:23.791Z,5576
2017-07-27T11:15:23.818Z,4748
2017-07-27T11:16:23.540Z,3712
2017-07-27T11:17:23.889Z,3368
2017-07-27T11:18:23.910Z,3028
2017-07-27T11:19:24.198Z,1604
2017-07-27T11:20:23.663Z,1392
2017-07-27T11:21:24.000Z,1300
2017-07-27T11:22:23.116Z,1560
2017-07-27T11:23:23.743Z,2368
2017-07-27T11:24:24.030Z,2424
2017-07-27T11:25:23.815Z,2280
2017-07-27T11:26:24.148Z,1988
2017-07-27T11:27:23.549Z,2348
2017-07-27T11:28:23.575Z,4728
2017-07-27T11:29:24.222Z,7000
2017-07-27T11:30:23.958Z,5788
2017-07-27T11:31:24.295Z,6432
2017-07-27T11:32:24.005Z,4264
2017-07-27T11:33:24.340Z,3036
2017-07-27T11:34:24.329Z,2044
2017-07-27T11:35:24.107Z,1756
2017-07-27T11:36:23.812Z,2500
2017-07-27T11:37:24.160Z,2636
2017-07-27T11:38:24.181Z,3348
2017-07-27T11:39:24.466Z,5292
2017-07-27T11:40:23.923Z,5868
2017-07-27T11:41:24.583Z,4812
2017-07-27T11:42:23.987Z,4584
2017-07-27T11:43:24.666Z,5036
2017-07-27T11:44:24.965Z,4624
2017-07-27T11:45:24.385Z,5408
2017-07-27T11:46:24.798Z,6856
2017-07-27T11:47:24.448Z,6184
2017-07-27T11:48:24.489Z,5556
2017-07-27T11:49:24.752Z,4900
2017-07-27T11:50:24.852Z,5960
2017-07-27T11:51:24.880Z,6376
2017-07-27T11:52:24.591Z,4936
2017-07-27T11:53:24.973Z,5032
2017-07-27T11:54:24.900Z,4000
2017-07-27T11:55:24.996Z,3392
2017-07-27T11:56:25.026Z,3464
2017-07-27T11:57:24.456Z,3268
2017-07-27T11:58:24.457Z,3112
2017-07-27T11:59:25.146Z,2860
2017-07-27T12:00:24.507Z,2316
2017-07-27T12:01:24.536Z,2144
2017-07-27T12:02:24.888Z,3172
2017-07-27T12:03:25.221Z,5912
2017-07-27T12:04:24.885Z,6508
2017-07-27T12:05:24.656Z,4596
2017-07-27T12:06:24.996Z,4768
2017-07-27T12:07:24.413Z,4328
2017-07-27T12:08:25.067Z,2912
2017-07-27T12:09:25.330Z,5164
2017-07-27T12:10:24.813Z,12036
2017-07-27T12:11:24.826Z,17336
2017-07-27T12:12:25.497Z,23424
2017-07-27T12:13:24.580Z,26304
2017-07-27T12:14:25.478Z,9344
2017-07-27T12:15:25.250Z,12836
2017-07-27T12:16:25.280Z,24032
2017-07-27T12:17:25.344Z,34656
2017-07-27T12:18:25.654Z,32224
2017-07-27T12:19:25.628Z,30816
2017-07-27T12:20:25.715Z,27744
2017-07-27T12:21:25.121Z,31680
2017-07-27T12:22:25.776Z,37312
2017-07-27T12:23:25.813Z,29312
2017-07-27T12:24:26.128Z,19680
2017-07-27T12:25:25.567Z,23200
2017-07-27T12:26:25.276Z,17856
2017-07-27T12:27:25.300Z,26592
2017-07-27T12:28:25.337Z,16008
2017-07-27T12:29:25.916Z,29120
2017-07-27T12:30:25.693Z,24864
2017-07-27T12:31:25.724Z,11280
2017-07-27T12:32:25.760Z,55584
2017-07-27T12:33:26.106Z,55360
2017-07-27T12:34:26.124Z,15212
2017-07-27T12:35:25.863Z,41376
2017-07-27T12:36:26.207Z,40256
2017-07-27T12:37:26.224Z,26752
2017-07-27T12:38:25.945Z,36064
2017-07-27T12:39:25.975Z,54016
2017-07-27T12:40:25.702Z,7500
2017-07-27T12:41:25.724Z,7500
2017-07-27T12:42:26.274Z,9956
2017-07-27T12:43:26.410Z,45184
2017-07-27T12:44:25.819Z,42528
2017-07-27T12:45:25.784Z,36512
2017-07-27T12:46:26.503Z,48896
2017-07-27T12:47:25.907Z,57056
2017-07-27T12:48:25.937Z,48704
2017-07-27T12:49:25.667Z,52736
2017-07-27T12:50:26.930Z,73344
2017-07-27T12:51:26.343Z,66368
2017-07-27T12:52:25.755Z,25792
2017-07-27T12:53:25.786Z,56448
2017-07-27T12:54:26.444Z,18560
2017-07-27T12:55:26.723Z,69184
2017-07-27T12:56:26.513Z,75648
2017-07-27T12:57:26.528Z,23008
2017-07-27T12:58:25.941Z,24512
2017-07-27T12:59:26.613Z,5548
2017-07-27T13:00:26.878Z,3092
2017-07-27T13:01:26.980Z,4004
2017-07-27T13:02:26.379Z,5040
2017-07-27T13:03:26.719Z,11132
2017-07-27T13:04:26.746Z,4420
2017-07-27T13:05:27.095Z,4016
2017-07-27T13:06:26.496Z,4656
2017-07-27T13:07:26.856Z,10824
2017-07-27T13:08:26.873Z,44992
2017-07-27T13:09:26.915Z,35904
2017-07-27T13:10:27.557Z,9636
2017-07-27T13:11:26.659Z,6432
2017-07-27T13:12:27.002Z,4860
2017-07-27T13:13:27.045Z,4332
2017-07-27T13:14:26.438Z,4848
2017-07-27T13:15:27.395Z,6888
2017-07-27T13:16:27.219Z,6248
2017-07-27T13:17:27.161Z,7516
2017-07-27T13:18:27.505Z,5120
2017-07-27T13:19:26.902Z,3524
2017-07-27T13:20:27.187Z,4500
2017-07-27T13:21:27.320Z,5652
2017-07-27T13:22:27.619Z,8748
2017-07-27T13:23:27.348Z,17108
2017-07-27T13:24:27.367Z,11396
2017-07-27T13:25:27.949Z,78880
2017-07-27T13:26:26.807Z,70368
2017-07-27T13:27:27.791Z,96096
2017-07-27T13:28:27.793Z,25344
2017-07-27T13:29:27.533Z,10880
2017-07-27T13:30:27.512Z,61632
2017-07-27T13:31:27.588Z,49248
2017-07-27T13:32:27.311Z,23968
2017-07-27T13:33:27.657Z,8416
2017-07-27T13:34:27.374Z,6900
2017-07-27T13:35:27.360Z,6088
2017-07-27T13:36:27.428Z,5396
2017-07-27T13:37:27.460Z,3816
2017-07-27T13:38:27.796Z,3420
2017-07-27T13:39:27.549Z,3752
2017-07-27T13:40:27.497Z,3684
2017-07-27T13:41:27.888Z,7540
2017-07-27T13:42:27.611Z,21728
2017-07-27T13:43:27.646Z,72864
2017-07-27T13:44:27.993Z,6368